sensor_id;sensor_type;location;lat;lon;timestamp;P1;durP1;ratioP1;P2;durP2;ratioP2
21334;SDS011;69435;52.670;13.544;2024-03-08T00:02:04;26.13;;;12.63;;
21334;SDS011;69435;52.670;13.544;2024-03-08T00:04:50;27.43;;;13.33;;
21334;SDS011;69435;52.670;13.544;2024-03-08T00:07:39;23.17;;;12.07;;
21334;SDS011;69435;52.670;13.544;2024-03-08T00:10:26;21.93;;;11.87;;
21334;SDS011;69435;52.670;13.544;2024-03-08T00:13:14;21.73;;;12.00;;
21334;SDS011;69435;52.670;13.544;2024-03-08T00:16:00;23.60;;;11.90;;
21334;SDS011;69435;52.670;13.544;2024-03-08T00:18:47;22.73;;;12.37;;
21334;SDS011;69435;52.670;13.544;2024-03-08T00:21:34;28.23;;;12.50;;
21334;SDS011;69435;52.670;13.544;2024-03-08T00:24:21;23.93;;;11.50;;
21334;SDS011;69435;52.670;13.544;2024-03-08T00:27:10;16.90;;;10.97;;
21334;SDS011;69435;52.670;13.544;2024-03-08T00:29:59;21.67;;;12.20;;
21334;SDS011;69435;52.670;13.544;2024-03-08T00:32:46;20.70;;;11.50;;
21334;SDS011;69435;52.670;13.544;2024-03-08T00:35:32;26.20;;;12.63;;
21334;SDS011;69435;52.670;13.544;2024-03-08T00:38:18;25.93;;;12.33;;
21334;SDS011;69435;52.670;13.544;2024-03-08T00:41:04;21.70;;;11.83;;
21334;SDS011;69435;52.670;13.544;2024-03-08T00:43:50;22.43;;;10.37;;
21334;SDS011;69435;52.670;13.544;2024-03-08T00:46:36;25.37;;;12.17;;
21334;SDS011;69435;52.670;13.544;2024-03-08T00:49:22;23.30;;;12.90;;
21334;SDS011;69435;52.670;13.544;2024-03-08T00:52:08;26.50;;;12.10;;
21334;SDS011;69435;52.670;13.544;2024-03-08T00:54:54;25.10;;;11.67;;
21334;SDS011;69435;52.670;13.544;2024-03-08T00:57:40;27.20;;;12.90;;
21334;SDS011;69435;52.670;13.544;2024-03-08T01:00:26;26.40;;;12.07;;
21334;SDS011;69435;52.670;13.544;2024-03-08T01:03:13;19.70;;;10.73;;
21334;SDS011;69435;52.670;13.544;2024-03-08T01:05:59;18.70;;;10.80;;
21334;SDS011;69435;52.670;13.544;2024-03-08T01:08:47;24.70;;;12.30;;
21334;SDS011;69435;52.670;13.544;2024-03-08T01:11:33;24.23;;;12.40;;
21334;SDS011;69435;52.670;13.544;2024-03-08T01:14:19;23.27;;;11.30;;
21334;SDS011;69435;52.670;13.544;2024-03-08T01:17:10;24.77;;;12.30;;
21334;SDS011;69435;52.670;13.544;2024-03-08T01:19:58;26.03;;;12.53;;
21334;SDS011;69435;52.670;13.544;2024-03-08T01:22:44;25.60;;;12.87;;
21334;SDS011;69435;52.670;13.544;2024-03-08T01:25:30;22.40;;;12.03;;
21334;SDS011;69435;52.670;13.544;2024-03-08T01:28:17;27.47;;;12.83;;
21334;SDS011;69435;52.670;13.544;2024-03-08T01:31:03;26.03;;;13.07;;
21334;SDS011;69435;52.670;13.544;2024-03-08T01:33:49;23.07;;;12.33;;
21334;SDS011;69435;52.670;13.544;2024-03-08T01:36:35;20.43;;;11.97;;
21334;SDS011;69435;52.670;13.544;2024-03-08T01:39:22;25.20;;;11.73;;
21334;SDS011;69435;52.670;13.544;2024-03-08T01:42:08;25.00;;;12.83;;
21334;SDS011;69435;52.670;13.544;2024-03-08T01:44:57;25.93;;;13.13;;
21334;SDS011;69435;52.670;13.544;2024-03-08T01:47:43;31.40;;;13.40;;
21334;SDS011;69435;52.670;13.544;2024-03-08T01:50:29;28.97;;;12.40;;
21334;SDS011;69435;52.670;13.544;2024-03-08T01:53:15;36.87;;;14.80;;
21334;SDS011;69435;52.670;13.544;2024-03-08T01:56:04;27.90;;;12.13;;
21334;SDS011;69435;52.670;13.544;2024-03-08T01:58:52;30.27;;;14.43;;
21334;SDS011;69435;52.670;13.544;2024-03-08T02:01:39;28.27;;;13.47;;
21334;SDS011;69435;52.670;13.544;2024-03-08T02:04:25;21.97;;;12.03;;
21334;SDS011;69435;52.670;13.544;2024-03-08T02:07:12;29.97;;;13.60;;
21334;SDS011;69435;52.670;13.544;2024-03-08T02:09:58;30.43;;;13.13;;
21334;SDS011;69435;52.670;13.544;2024-03-08T02:12:45;25.40;;;13.10;;
21334;SDS011;69435;52.670;13.544;2024-03-08T02:15:52;30.47;;;14.10;;
21334;SDS011;69435;52.670;13.544;2024-03-08T02:18:38;31.60;;;13.57;;
21334;SDS011;69435;52.670;13.544;2024-03-08T02:21:25;30.63;;;13.60;;
21334;SDS011;69435;52.670;13.544;2024-03-08T02:24:11;29.23;;;13.07;;
21334;SDS011;69435;52.670;13.544;2024-03-08T02:26:57;29.53;;;13.83;;
21334;SDS011;69435;52.670;13.544;2024-03-08T02:29:43;31.47;;;14.10;;
21334;SDS011;69435;52.670;13.544;2024-03-08T02:32:31;28.97;;;14.50;;
21334;SDS011;69435;52.670;13.544;2024-03-08T02:35:18;28.13;;;14.23;;
21334;SDS011;69435;52.670;13.544;2024-03-08T02:38:04;28.23;;;14.47;;
21334;SDS011;69435;52.670;13.544;2024-03-08T02:40:50;29.60;;;14.33;;
21334;SDS011;69435;52.670;13.544;2024-03-08T02:43:38;28.17;;;13.97;;
21334;SDS011;69435;52.670;13.544;2024-03-08T02:46:24;26.67;;;13.40;;
21334;SDS011;69435;52.670;13.544;2024-03-08T02:49:10;28.90;;;14.33;;
21334;SDS011;69435;52.670;13.544;2024-03-08T02:51:56;30.97;;;14.03;;
21334;SDS011;69435;52.670;13.544;2024-03-08T02:54:44;30.70;;;14.20;;
21334;SDS011;69435;52.670;13.544;2024-03-08T02:57:31;32.00;;;14.63;;
21334;SDS011;69435;52.670;13.544;2024-03-08T03:00:17;31.23;;;13.87;;
21334;SDS011;69435;52.670;13.544;2024-03-08T03:03:04;31.97;;;13.43;;
21334;SDS011;69435;52.670;13.544;2024-03-08T03:05:51;31.50;;;14.20;;
21334;SDS011;69435;52.670;13.544;2024-03-08T03:08:41;29.10;;;14.60;;
21334;SDS011;69435;52.670;13.544;2024-03-08T03:11:29;30.20;;;14.87;;
21334;SDS011;69435;52.670;13.544;2024-03-08T03:14:15;30.43;;;14.47;;
21334;SDS011;69435;52.670;13.544;2024-03-08T03:17:01;32.17;;;15.63;;
21334;SDS011;69435;52.670;13.544;2024-03-08T03:19:48;27.87;;;14.13;;
21334;SDS011;69435;52.670;13.544;2024-03-08T03:22:34;28.93;;;14.07;;
21334;SDS011;69435;52.670;13.544;2024-03-08T03:25:20;39.67;;;14.83;;
21334;SDS011;69435;52.670;13.544;2024-03-08T03:28:18;26.30;;;13.97;;
21334;SDS011;69435;52.670;13.544;2024-03-08T03:31:07;32.33;;;14.67;;
21334;SDS011;69435;52.670;13.544;2024-03-08T03:33:55;28.10;;;14.27;;
21334;SDS011;69435;52.670;13.544;2024-03-08T03:36:46;32.07;;;15.10;;
21334;SDS011;69435;52.670;13.544;2024-03-08T03:39:32;29.20;;;13.43;;
21334;SDS011;69435;52.670;13.544;2024-03-08T03:42:19;34.23;;;14.63;;
21334;SDS011;69435;52.670;13.544;2024-03-08T03:45:05;26.27;;;13.53;;
21334;SDS011;69435;52.670;13.544;2024-03-08T03:47:52;33.63;;;15.47;;
21334;SDS011;69435;52.670;13.544;2024-03-08T03:50:38;32.70;;;14.43;;
21334;SDS011;69435;52.670;13.544;2024-03-08T03:53:24;28.50;;;14.67;;
21334;SDS011;69435;52.670;13.544;2024-03-08T03:56:11;35.70;;;14.73;;
21334;SDS011;69435;52.670;13.544;2024-03-08T03:58:57;27.40;;;14.53;;
21334;SDS011;69435;52.670;13.544;2024-03-08T04:01:43;29.90;;;13.63;;
21334;SDS011;69435;52.670;13.544;2024-03-08T04:04:29;32.40;;;15.10;;
21334;SDS011;69435;52.670;13.544;2024-03-08T04:07:15;31.93;;;14.00;;
21334;SDS011;69435;52.670;13.544;2024-03-08T04:10:02;33.00;;;15.30;;
21334;SDS011;69435;52.670;13.544;2024-03-08T04:12:51;32.67;;;15.00;;
21334;SDS011;69435;52.670;13.544;2024-03-08T04:15:37;31.30;;;15.00;;
21334;SDS011;69435;52.670;13.544;2024-03-08T04:18:23;30.73;;;14.40;;
21334;SDS011;69435;52.670;13.544;2024-03-08T04:21:10;34.60;;;15.23;;
21334;SDS011;69435;52.670;13.544;2024-03-08T04:23:56;32.40;;;15.47;;
21334;SDS011;69435;52.670;13.544;2024-03-08T04:26:42;32.53;;;15.43;;
21334;SDS011;69435;52.670;13.544;2024-03-08T04:29:28;34.10;;;14.93;;
21334;SDS011;69435;52.670;13.544;2024-03-08T04:32:14;32.13;;;15.30;;
21334;SDS011;69435;52.670;13.544;2024-03-08T04:35:00;30.93;;;14.60;;
21334;SDS011;69435;52.670;13.544;2024-03-08T04:37:47;30.77;;;14.67;;
21334;SDS011;69435;52.670;13.544;2024-03-08T04:40:32;35.57;;;15.07;;
21334;SDS011;69435;52.670;13.544;2024-03-08T04:43:19;32.23;;;15.47;;
21334;SDS011;69435;52.670;13.544;2024-03-08T04:46:06;28.93;;;14.40;;
21334;SDS011;69435;52.670;13.544;2024-03-08T04:48:51;35.53;;;15.37;;
21334;SDS011;69435;52.670;13.544;2024-03-08T04:51:37;32.60;;;14.97;;
21334;SDS011;69435;52.670;13.544;2024-03-08T04:54:23;32.07;;;15.23;;
21334;SDS011;69435;52.670;13.544;2024-03-08T04:57:10;31.27;;;15.27;;
21334;SDS011;69435;52.670;13.544;2024-03-08T04:59:56;29.57;;;15.00;;
21334;SDS011;69435;52.670;13.544;2024-03-08T05:02:44;34.30;;;15.67;;
21334;SDS011;69435;52.670;13.544;2024-03-08T05:05:30;32.53;;;15.43;;
21334;SDS011;69435;52.670;13.544;2024-03-08T05:08:16;37.47;;;16.93;;
21334;SDS011;69435;52.670;13.544;2024-03-08T05:11:04;39.37;;;16.33;;
21334;SDS011;69435;52.670;13.544;2024-03-08T05:13:52;37.83;;;17.27;;
21334;SDS011;69435;52.670;13.544;2024-03-08T05:16:38;34.43;;;16.53;;
21334;SDS011;69435;52.670;13.544;2024-03-08T05:19:25;39.60;;;18.60;;
21334;SDS011;69435;52.670;13.544;2024-03-08T05:22:12;39.70;;;17.90;;
21334;SDS011;69435;52.670;13.544;2024-03-08T05:24:58;39.17;;;15.33;;
21334;SDS011;69435;52.670;13.544;2024-03-08T05:27:45;28.77;;;15.87;;
21334;SDS011;69435;52.670;13.544;2024-03-08T05:30:32;33.50;;;15.10;;
21334;SDS011;69435;52.670;13.544;2024-03-08T05:33:18;35.97;;;16.50;;
21334;SDS011;69435;52.670;13.544;2024-03-08T05:36:04;32.30;;;14.80;;
21334;SDS011;69435;52.670;13.544;2024-03-08T05:38:51;29.43;;;15.47;;
21334;SDS011;69435;52.670;13.544;2024-03-08T05:41:37;34.73;;;15.57;;
21334;SDS011;69435;52.670;13.544;2024-03-08T05:44:27;38.90;;;15.57;;
21334;SDS011;69435;52.670;13.544;2024-03-08T05:47:14;38.17;;;15.77;;
21334;SDS011;69435;52.670;13.544;2024-03-08T05:50:01;32.60;;;15.13;;
21334;SDS011;69435;52.670;13.544;2024-03-08T05:52:47;37.27;;;15.90;;
21334;SDS011;69435;52.670;13.544;2024-03-08T05:55:33;43.23;;;16.43;;
21334;SDS011;69435;52.670;13.544;2024-03-08T05:58:22;32.57;;;14.63;;
21334;SDS011;69435;52.670;13.544;2024-03-08T06:01:08;42.87;;;16.50;;
21334;SDS011;69435;52.670;13.544;2024-03-08T06:03:57;44.77;;;16.43;;
21334;SDS011;69435;52.670;13.544;2024-03-08T06:06:44;37.97;;;16.77;;
21334;SDS011;69435;52.670;13.544;2024-03-08T06:09:30;38.53;;;15.73;;
21334;SDS011;69435;52.670;13.544;2024-03-08T06:12:16;45.23;;;16.10;;
21334;SDS011;69435;52.670;13.544;2024-03-08T06:15:04;37.07;;;16.20;;
21334;SDS011;69435;52.670;13.544;2024-03-08T06:17:51;42.30;;;16.47;;
21334;SDS011;69435;52.670;13.544;2024-03-08T06:20:39;40.20;;;15.97;;
21334;SDS011;69435;52.670;13.544;2024-03-08T06:23:29;42.07;;;17.90;;
21334;SDS011;69435;52.670;13.544;2024-03-08T06:26:14;47.73;;;17.60;;
21334;SDS011;69435;52.670;13.544;2024-03-08T06:29:00;42.57;;;17.27;;
21334;SDS011;69435;52.670;13.544;2024-03-08T06:31:46;37.73;;;16.97;;
21334;SDS011;69435;52.670;13.544;2024-03-08T06:34:33;44.00;;;17.57;;
21334;SDS011;69435;52.670;13.544;2024-03-08T06:37:19;41.87;;;18.90;;
21334;SDS011;69435;52.670;13.544;2024-03-08T06:40:07;37.17;;;18.17;;
21334;SDS011;69435;52.670;13.544;2024-03-08T06:42:55;37.83;;;17.23;;
21334;SDS011;69435;52.670;13.544;2024-03-08T06:45:42;41.07;;;18.57;;
21334;SDS011;69435;52.670;13.544;2024-03-08T06:48:33;42.20;;;19.37;;
21334;SDS011;69435;52.670;13.544;2024-03-08T06:51:20;49.80;;;19.67;;
21334;SDS011;69435;52.670;13.544;2024-03-08T06:54:06;50.83;;;19.57;;
21334;SDS011;69435;52.670;13.544;2024-03-08T06:56:54;43.23;;;19.27;;
21334;SDS011;69435;52.670;13.544;2024-03-08T06:59:40;47.30;;;20.20;;
21334;SDS011;69435;52.670;13.544;2024-03-08T07:02:26;45.50;;;20.07;;
21334;SDS011;69435;52.670;13.544;2024-03-08T07:05:12;42.33;;;19.73;;
21334;SDS011;69435;52.670;13.544;2024-03-08T07:07:58;43.20;;;20.27;;
21334;SDS011;69435;52.670;13.544;2024-03-08T07:10:45;39.77;;;19.30;;
21334;SDS011;69435;52.670;13.544;2024-03-08T07:13:31;38.00;;;18.33;;
21334;SDS011;69435;52.670;13.544;2024-03-08T07:16:17;30.00;;;15.90;;
21334;SDS011;69435;52.670;13.544;2024-03-08T07:19:03;32.33;;;16.33;;
21334;SDS011;69435;52.670;13.544;2024-03-08T07:21:50;31.50;;;16.50;;
21334;SDS011;69435;52.670;13.544;2024-03-08T07:24:36;26.13;;;14.80;;
21334;SDS011;69435;52.670;13.544;2024-03-08T07:27:22;33.90;;;16.13;;
21334;SDS011;69435;52.670;13.544;2024-03-08T07:30:08;27.43;;;15.80;;
21334;SDS011;69435;52.670;13.544;2024-03-08T07:32:55;32.47;;;16.10;;
21334;SDS011;69435;52.670;13.544;2024-03-08T07:35:41;25.13;;;14.83;;
21334;SDS011;69435;52.670;13.544;2024-03-08T07:38:27;29.23;;;15.73;;
21334;SDS011;69435;52.670;13.544;2024-03-08T07:41:15;28.03;;;15.23;;
21334;SDS011;69435;52.670;13.544;2024-03-08T07:44:01;29.87;;;16.10;;
21334;SDS011;69435;52.670;13.544;2024-03-08T07:46:49;25.77;;;15.37;;
21334;SDS011;69435;52.670;13.544;2024-03-08T07:49:35;26.23;;;16.33;;
21334;SDS011;69435;52.670;13.544;2024-03-08T07:52:24;27.10;;;16.43;;
21334;SDS011;69435;52.670;13.544;2024-03-08T07:55:10;30.23;;;17.20;;
21334;SDS011;69435;52.670;13.544;2024-03-08T07:57:56;22.63;;;15.40;;
21334;SDS011;69435;52.670;13.544;2024-03-08T08:00:42;26.30;;;17.30;;
21334;SDS011;69435;52.670;13.544;2024-03-08T08:03:28;25.37;;;15.50;;
21334;SDS011;69435;52.670;13.544;2024-03-08T08:06:17;22.03;;;15.77;;
21334;SDS011;69435;52.670;13.544;2024-03-08T08:09:03;23.40;;;15.67;;
21334;SDS011;69435;52.670;13.544;2024-03-08T08:11:49;22.20;;;14.43;;
21334;SDS011;69435;52.670;13.544;2024-03-08T08:14:35;23.37;;;14.90;;
21334;SDS011;69435;52.670;13.544;2024-03-08T08:17:21;20.67;;;14.50;;
21334;SDS011;69435;52.670;13.544;2024-03-08T08:20:08;21.83;;;15.03;;
21334;SDS011;69435;52.670;13.544;2024-03-08T08:22:56;22.17;;;14.63;;
21334;SDS011;69435;52.670;13.544;2024-03-08T08:25:44;22.77;;;14.57;;
21334;SDS011;69435;52.670;13.544;2024-03-08T08:28:31;21.10;;;14.10;;
21334;SDS011;69435;52.670;13.544;2024-03-08T08:31:17;22.60;;;14.60;;
21334;SDS011;69435;52.670;13.544;2024-03-08T08:34:03;22.93;;;14.97;;
21334;SDS011;69435;52.670;13.544;2024-03-08T08:36:49;22.80;;;14.63;;
21334;SDS011;69435;52.670;13.544;2024-03-08T08:39:35;22.13;;;13.83;;
21334;SDS011;69435;52.670;13.544;2024-03-08T08:42:21;21.67;;;13.77;;
21334;SDS011;69435;52.670;13.544;2024-03-08T08:45:07;21.10;;;14.03;;
21334;SDS011;69435;52.670;13.544;2024-03-08T08:47:54;30.20;;;14.57;;
21334;SDS011;69435;52.670;13.544;2024-03-08T08:50:40;18.10;;;13.07;;
21334;SDS011;69435;52.670;13.544;2024-03-08T08:53:26;21.83;;;15.00;;
21334;SDS011;69435;52.670;13.544;2024-03-08T08:56:13;25.50;;;13.30;;
21334;SDS011;69435;52.670;13.544;2024-03-08T08:59:01;20.20;;;13.60;;
21334;SDS011;69435;52.670;13.544;2024-03-08T09:01:49;21.07;;;13.77;;
21334;SDS011;69435;52.670;13.544;2024-03-08T09:04:37;18.53;;;13.13;;
21334;SDS011;69435;52.670;13.544;2024-03-08T09:07:23;19.97;;;13.87;;
21334;SDS011;69435;52.670;13.544;2024-03-08T09:10:09;24.83;;;13.53;;
21334;SDS011;69435;52.670;13.544;2024-03-08T09:12:57;22.07;;;14.23;;
21334;SDS011;69435;52.670;13.544;2024-03-08T09:15:44;20.97;;;13.80;;
21334;SDS011;69435;52.670;13.544;2024-03-08T09:18:31;20.20;;;13.40;;
21334;SDS011;69435;52.670;13.544;2024-03-08T09:21:17;23.43;;;14.17;;
21334;SDS011;69435;52.670;13.544;2024-03-08T09:24:03;22.70;;;13.97;;
21334;SDS011;69435;52.670;13.544;2024-03-08T09:26:50;26.97;;;15.13;;
21334;SDS011;69435;52.670;13.544;2024-03-08T09:29:37;21.90;;;14.80;;
21334;SDS011;69435;52.670;13.544;2024-03-08T09:32:23;22.23;;;14.43;;
21334;SDS011;69435;52.670;13.544;2024-03-08T09:35:09;22.10;;;15.13;;
21334;SDS011;69435;52.670;13.544;2024-03-08T09:37:56;26.47;;;16.20;;
21334;SDS011;69435;52.670;13.544;2024-03-08T09:40:42;23.30;;;15.27;;
21334;SDS011;69435;52.670;13.544;2024-03-08T09:43:28;30.37;;;16.30;;
21334;SDS011;69435;52.670;13.544;2024-03-08T09:46:15;23.40;;;15.03;;
21334;SDS011;69435;52.670;13.544;2024-03-08T09:49:04;29.33;;;15.67;;
21334;SDS011;69435;52.670;13.544;2024-03-08T09:51:51;24.10;;;14.83;;
21334;SDS011;69435;52.670;13.544;2024-03-08T09:54:37;27.07;;;14.83;;
21334;SDS011;69435;52.670;13.544;2024-03-08T09:57:25;20.77;;;14.40;;
21334;SDS011;69435;52.670;13.544;2024-03-08T10:00:11;30.80;;;15.87;;
21334;SDS011;69435;52.670;13.544;2024-03-08T10:03:08;21.73;;;13.67;;
21334;SDS011;69435;52.670;13.544;2024-03-08T10:05:56;18.40;;;13.50;;
21334;SDS011;69435;52.670;13.544;2024-03-08T10:08:48;19.63;;;13.30;;
21334;SDS011;69435;52.670;13.544;2024-03-08T10:11:37;22.73;;;13.80;;
21334;SDS011;69435;52.670;13.544;2024-03-08T10:14:23;21.13;;;13.07;;
21334;SDS011;69435;52.670;13.544;2024-03-08T10:17:14;21.80;;;13.63;;
21334;SDS011;69435;52.670;13.544;2024-03-08T10:20:00;24.30;;;14.67;;
21334;SDS011;69435;52.670;13.544;2024-03-08T10:22:47;18.97;;;14.10;;
21334;SDS011;69435;52.670;13.544;2024-03-08T10:25:34;17.57;;;12.03;;
21334;SDS011;69435;52.670;13.544;2024-03-08T10:28:22;22.83;;;13.57;;
21334;SDS011;69435;52.670;13.544;2024-03-08T10:31:10;18.93;;;13.27;;
21334;SDS011;69435;52.670;13.544;2024-03-08T10:33:56;22.53;;;13.40;;
21334;SDS011;69435;52.670;13.544;2024-03-08T10:36:42;24.17;;;13.53;;
21334;SDS011;69435;52.670;13.544;2024-03-08T10:39:31;17.73;;;13.53;;
21334;SDS011;69435;52.670;13.544;2024-03-08T10:42:22;20.37;;;13.07;;
21334;SDS011;69435;52.670;13.544;2024-03-08T10:45:15;18.10;;;12.67;;
21334;SDS011;69435;52.670;13.544;2024-03-08T10:51:34;18.67;;;13.07;;
21334;SDS011;69435;52.670;13.544;2024-03-08T10:54:23;20.77;;;12.93;;
21334;SDS011;69435;52.670;13.544;2024-03-08T10:57:12;23.77;;;13.33;;
21334;SDS011;69435;52.670;13.544;2024-03-08T11:00:00;19.57;;;13.03;;
21334;SDS011;69435;52.670;13.544;2024-03-08T11:02:49;19.50;;;12.97;;
21334;SDS011;69435;52.670;13.544;2024-03-08T11:05:36;27.00;;;14.60;;
21334;SDS011;69435;52.670;13.544;2024-03-08T11:08:24;19.00;;;11.63;;
21334;SDS011;69435;52.670;13.544;2024-03-08T11:11:24;20.77;;;12.70;;
21334;SDS011;69435;52.670;13.544;2024-03-08T11:20:18;22.23;;;13.33;;
21334;SDS011;69435;52.670;13.544;2024-03-08T11:23:08;19.17;;;13.00;;
21334;SDS011;69435;52.670;13.544;2024-03-08T11:25:54;19.67;;;12.53;;
21334;SDS011;69435;52.670;13.544;2024-03-08T11:28:40;20.53;;;12.27;;
21334;SDS011;69435;52.670;13.544;2024-03-08T11:31:26;21.17;;;11.77;;
21334;SDS011;69435;52.670;13.544;2024-03-08T11:34:16;16.67;;;11.40;;
21334;SDS011;69435;52.670;13.544;2024-03-08T11:37:04;18.60;;;12.17;;
21334;SDS011;69435;52.670;13.544;2024-03-08T11:39:55;18.50;;;11.83;;
21334;SDS011;69435;52.670;13.544;2024-03-08T11:42:49;20.87;;;12.13;;
21334;SDS011;69435;52.670;13.544;2024-03-08T11:45:37;21.10;;;12.87;;
21334;SDS011;69435;52.670;13.544;2024-03-08T11:48:23;22.77;;;12.57;;
21334;SDS011;69435;52.670;13.544;2024-03-08T11:51:13;19.70;;;12.13;;
21334;SDS011;69435;52.670;13.544;2024-03-08T11:54:00;18.87;;;11.47;;
21334;SDS011;69435;52.670;13.544;2024-03-08T11:56:46;21.70;;;12.90;;
21334;SDS011;69435;52.670;13.544;2024-03-08T11:59:33;20.53;;;12.80;;
21334;SDS011;69435;52.670;13.544;2024-03-08T12:02:19;18.23;;;11.90;;
21334;SDS011;69435;52.670;13.544;2024-03-08T12:05:05;20.47;;;12.57;;
21334;SDS011;69435;52.670;13.544;2024-03-08T12:07:58;19.20;;;12.53;;
21334;SDS011;69435;52.670;13.544;2024-03-08T12:10:44;18.63;;;11.87;;
21334;SDS011;69435;52.670;13.544;2024-03-08T12:13:31;17.10;;;12.67;;
21334;SDS011;69435;52.670;13.544;2024-03-08T12:16:19;17.63;;;11.47;;
21334;SDS011;69435;52.670;13.544;2024-03-08T12:19:08;14.60;;;11.00;;
21334;SDS011;69435;52.670;13.544;2024-03-08T12:21:55;19.87;;;11.83;;
21334;SDS011;69435;52.670;13.544;2024-03-08T12:24:41;21.50;;;12.90;;
21334;SDS011;69435;52.670;13.544;2024-03-08T12:27:29;18.93;;;12.40;;
21334;SDS011;69435;52.670;13.544;2024-03-08T12:30:24;24.13;;;12.63;;
21334;SDS011;69435;52.670;13.544;2024-03-08T12:33:12;15.13;;;11.30;;
21334;SDS011;69435;52.670;13.544;2024-03-08T12:35:58;19.90;;;10.93;;
21334;SDS011;69435;52.670;13.544;2024-03-08T12:38:47;19.07;;;11.07;;
21334;SDS011;69435;52.670;13.544;2024-03-08T12:41:38;19.73;;;11.13;;
21334;SDS011;69435;52.670;13.544;2024-03-08T12:44:26;15.37;;;11.27;;
21334;SDS011;69435;52.670;13.544;2024-03-08T12:47:13;18.13;;;11.33;;
21334;SDS011;69435;52.670;13.544;2024-03-08T12:49:59;19.23;;;11.73;;
21334;SDS011;69435;52.670;13.544;2024-03-08T12:52:45;16.83;;;11.40;;
21334;SDS011;69435;52.670;13.544;2024-03-08T12:55:31;17.07;;;11.47;;
21334;SDS011;69435;52.670;13.544;2024-03-08T12:58:18;17.20;;;11.77;;
21334;SDS011;69435;52.670;13.544;2024-03-08T13:01:05;17.30;;;11.77;;
21334;SDS011;69435;52.670;13.544;2024-03-08T13:03:54;19.83;;;12.23;;
21334;SDS011;69435;52.670;13.544;2024-03-08T13:06:44;22.90;;;12.97;;
21334;SDS011;69435;52.670;13.544;2024-03-08T13:09:31;18.80;;;12.00;;
21334;SDS011;69435;52.670;13.544;2024-03-08T13:12:22;22.03;;;12.80;;
21334;SDS011;69435;52.670;13.544;2024-03-08T13:15:09;20.10;;;12.47;;
21334;SDS011;69435;52.670;13.544;2024-03-08T13:18:05;17.53;;;11.97;;
21334;SDS011;69435;52.670;13.544;2024-03-08T13:20:54;25.87;;;13.07;;
21334;SDS011;69435;52.670;13.544;2024-03-08T13:23:42;20.13;;;12.50;;
21334;SDS011;69435;52.670;13.544;2024-03-08T13:26:31;20.80;;;13.20;;
21334;SDS011;69435;52.670;13.544;2024-03-08T13:29:20;17.47;;;12.43;;
21334;SDS011;69435;52.670;13.544;2024-03-08T13:32:06;20.83;;;12.23;;
21334;SDS011;69435;52.670;13.544;2024-03-08T13:34:52;19.87;;;12.67;;
21334;SDS011;69435;52.670;13.544;2024-03-08T13:37:42;20.07;;;12.93;;
21334;SDS011;69435;52.670;13.544;2024-03-08T13:40:28;20.30;;;11.87;;
21334;SDS011;69435;52.670;13.544;2024-03-08T13:43:14;28.83;;;13.40;;
21334;SDS011;69435;52.670;13.544;2024-03-08T13:46:00;22.53;;;13.60;;
21334;SDS011;69435;52.670;13.544;2024-03-08T13:48:46;19.53;;;11.83;;
21334;SDS011;69435;52.670;13.544;2024-03-08T13:51:33;24.20;;;13.97;;
21334;SDS011;69435;52.670;13.544;2024-03-08T13:54:19;21.23;;;12.87;;
21334;SDS011;69435;52.670;13.544;2024-03-08T13:57:06;21.37;;;13.17;;
21334;SDS011;69435;52.670;13.544;2024-03-08T13:59:53;20.87;;;12.60;;
21334;SDS011;69435;52.670;13.544;2024-03-08T14:02:39;17.10;;;11.37;;
21334;SDS011;69435;52.670;13.544;2024-03-08T14:05:26;20.47;;;12.87;;
21334;SDS011;69435;52.670;13.544;2024-03-08T14:08:12;21.87;;;12.43;;
21334;SDS011;69435;52.670;13.544;2024-03-08T14:10:58;15.60;;;11.47;;
21334;SDS011;69435;52.670;13.544;2024-03-08T14:13:44;21.37;;;12.67;;
21334;SDS011;69435;52.670;13.544;2024-03-08T14:16:32;21.33;;;12.13;;
21334;SDS011;69435;52.670;13.544;2024-03-08T14:19:18;20.73;;;11.73;;
21334;SDS011;69435;52.670;13.544;2024-03-08T14:22:05;16.70;;;10.73;;
21334;SDS011;69435;52.670;13.544;2024-03-08T14:24:52;18.63;;;11.73;;
21334;SDS011;69435;52.670;13.544;2024-03-08T14:27:41;19.17;;;11.60;;
21334;SDS011;69435;52.670;13.544;2024-03-08T14:30:29;17.90;;;11.60;;
21334;SDS011;69435;52.670;13.544;2024-03-08T14:33:18;20.10;;;12.17;;
21334;SDS011;69435;52.670;13.544;2024-03-08T14:36:04;20.33;;;12.10;;
21334;SDS011;69435;52.670;13.544;2024-03-08T14:38:51;23.00;;;12.33;;
21334;SDS011;69435;52.670;13.544;2024-03-08T14:41:40;20.47;;;12.10;;
21334;SDS011;69435;52.670;13.544;2024-03-08T14:44:26;16.80;;;10.73;;
21334;SDS011;69435;52.670;13.544;2024-03-08T14:47:12;20.90;;;11.50;;
21334;SDS011;69435;52.670;13.544;2024-03-08T14:49:59;18.63;;;11.77;;
21334;SDS011;69435;52.670;13.544;2024-03-08T14:52:45;14.80;;;11.27;;
21334;SDS011;69435;52.670;13.544;2024-03-08T14:55:33;23.33;;;11.60;;
21334;SDS011;69435;52.670;13.544;2024-03-08T14:58:20;20.07;;;11.40;;
21334;SDS011;69435;52.670;13.544;2024-03-08T15:01:07;19.37;;;11.13;;
21334;SDS011;69435;52.670;13.544;2024-03-08T15:03:53;15.70;;;11.57;;
21334;SDS011;69435;52.670;13.544;2024-03-08T15:06:40;20.17;;;11.93;;
21334;SDS011;69435;52.670;13.544;2024-03-08T15:09:27;15.13;;;9.97;;
21334;SDS011;69435;52.670;13.544;2024-03-08T15:12:13;18.20;;;10.93;;
21334;SDS011;69435;52.670;13.544;2024-03-08T15:15:00;17.57;;;11.10;;
21334;SDS011;69435;52.670;13.544;2024-03-08T15:17:46;20.07;;;11.50;;
21334;SDS011;69435;52.670;13.544;2024-03-08T15:20:32;17.20;;;10.77;;
21334;SDS011;69435;52.670;13.544;2024-03-08T15:23:20;18.77;;;11.70;;
21334;SDS011;69435;52.670;13.544;2024-03-08T15:26:06;16.20;;;10.17;;
21334;SDS011;69435;52.670;13.544;2024-03-08T15:28:54;14.97;;;9.73;;
21334;SDS011;69435;52.670;13.544;2024-03-08T15:31:42;18.53;;;9.80;;
21334;SDS011;69435;52.670;13.544;2024-03-08T15:34:28;16.10;;;10.00;;
21334;SDS011;69435;52.670;13.544;2024-03-08T15:37:14;14.60;;;8.90;;
21334;SDS011;69435;52.670;13.544;2024-03-08T15:40:02;16.97;;;9.43;;
21334;SDS011;69435;52.670;13.544;2024-03-08T15:45:40;20.90;;;8.57;;
21334;SDS011;69435;52.670;13.544;2024-03-08T15:48:26;17.10;;;9.83;;
21334;SDS011;69435;52.670;13.544;2024-03-08T15:51:12;15.57;;;9.53;;
21334;SDS011;69435;52.670;13.544;2024-03-08T15:53:59;14.80;;;9.30;;
21334;SDS011;69435;52.670;13.544;2024-03-08T15:56:45;11.87;;;9.17;;
21334;SDS011;69435;52.670;13.544;2024-03-08T15:59:31;13.37;;;9.03;;
21334;SDS011;69435;52.670;13.544;2024-03-08T16:02:22;12.47;;;8.17;;
21334;SDS011;69435;52.670;13.544;2024-03-08T16:05:10;11.87;;;8.63;;
21334;SDS011;69435;52.670;13.544;2024-03-08T16:07:57;18.17;;;9.07;;
21334;SDS011;69435;52.670;13.544;2024-03-08T16:10:45;9.07;;;7.90;;
21334;SDS011;69435;52.670;13.544;2024-03-08T16:13:42;16.27;;;9.67;;
21334;SDS011;69435;52.670;13.544;2024-03-08T16:16:28;11.83;;;8.53;;